Date,TemperatureHighF,TemperatureAvgF,TemperatureLowF,DewpointHighF,DewpointAvgF,DewpointLowF,HumidityHigh,HumidityAvg,HumidityLow,PressureMaxIn,PressureMinIn,WindSpeedMaxMPH,WindSpeedAvgMPH,GustSpeedMaxMPH,PrecipitationSumIn
2013-1-1,41,36,33,30,28,26,86,74,62,29.62,29.51,22,6,36,0.00
2013-1-2,35,29,24,26,18,14,81,65,44,29.81,29.60,13,4,23,0.00
2013-1-3,45,29,15,24,18,13,92,65,42,29.80,29.71,17,3,29,0.00
2013-1-4,37,32,28,23,21,16,69,64,56,29.81,29.74,22,6,34,0.01
2013-1-5,55,34,29,28,22,15,84,63,31,29.94,29.75,17,4,31,0.00
2013-1-6,46,39,34,32,28,24,78,65,54,29.77,29.62,12,3,21,0.00
2013-1-7,49,33,19,30,25,19,99,74,47,30.04,29.77,11,3,19,0.00
2013-1-8,58,30,15,34,24,15,99,82,30,29.98,29.91,9,1,15,0.00
2013-1-9,60,39,24,53,34,24,99,82,55,30.04,29.82,18,4,32,0.00
2013-1-10,55,43,33,38,32,24,88,66,41,30.18,29.21,14,2,21,0.00
2013-1-11,45,38,33,40,35,29,99,91,64,30.03,29.69,3,0,4,0.15
2013-1-12,64,47,37,54,44,37,99,93,66,29.75,29.67,4,1,6,0.01
2013-1-13,58,49,40,53,48,40,99,96,84,29.69,29.54,4,0,4,0.00
2013-1-14,62,46,35,60,42,29,99,84,67,29.93,29.55,14,2,23,0.28
2013-1-15,40,35,32,35,34,32,99,96,78,29.94,29.72,4,1,8,0.44
2013-1-16,43,37,32,40,34,27,99,91,62,29.73,29.44,13,2,17,0.14
2013-1-17,43,37,33,31,28,23,88,71,53,29.73,29.60,9,2,20,0.00
2013-1-18,45,30,21,26,16,7,84,59,25,30.07,29.72,24,4,40,2.00
2013-1-19,61,41,20,28,15,2,89,44,10,29.91,29.50,20,3,31,4.95
2013-1-20,60,44,30,35,18,-4,65,37,15,29.69,29.42,27,8,41,0.87
2013-1-21,44,29,17,22,12,0,75,51,19,29.68,29.42,24,5,40,0.02
2013-1-22,19,12,8,4,-3,-7,68,49,37,29.83,29.58,21,7,37,0.05
2013-1-23,20,14,9,14,0,-3,89,54,37,29.88,29.65,13,4,21,0.00
2013-1-24,26,17,7,15,7,0,96,68,37,30.09,29.62,15,2,23,0.00
2013-1-25,26,13,6,22,8,1,99,79,59,30.08,29.60,9,1,17,0.00
2013-1-26,32,27,24,23,19,13,82,71,60,30.02,29.59,15,4,24,0.00
2013-1-27,48,28,17,24,17,12,83,65,39,30.13,29.99,7,1,14,0.00
2013-1-28,57,39,28,53,36,22,99,91,75,29.99,29.64,17,2,24,0.05
2013-1-29,75,57,47,58,52,46,99,85,47,29.72,29.52,10,2,15,0.00
2013-1-30,72,52,39,60,50,39,99,93,64,29.52,28.89,18,3,30,1.40
2013-1-31,54,32,25,49,23,9,97,69,49,29.47,28.86,30,10,54,1.36
2013-2-1,26,18,12,23,8,1,98,63,48,29.93,29.40,22,6,40,15.57
2013-2-2,36,20,5,26,12,2,99,76,41,29.92,29.53,7,1,11,0.00
2013-2-3,34,27,21,28,21,12,99,80,57,29.58,29.39,21,4,31,0.27
2013-2-4,37,27,20,28,18,10,99,71,44,29.92,29.50,23,4,36,0.00
2013-2-5,50,34,28,41,32,27,99,91,69,29.94,29.83,17,3,30,0.15
2013-2-6,38,33,23,34,27,22,99,80,66,30.34,29.93,14,3,24,0.03
2013-2-7,40,29,21,29,25,21,99,85,65,30.38,30.14,4,1,8,0.00
2013-2-8,40,33,28,37,28,20,99,83,70,30.14,29.83,21,4,56,0.23
2013-2-9,42,29,19,21,18,14,86,64,36,30.39,28.85,18,4,30,0.00
2013-2-10,45,28,14,32,21,13,99,77,41,30.42,30.12,4,1,8,0.00
2013-2-11,67,47,33,48,32,10,99,64,17,30.12,29.74,24,5,44,0.05
2013-2-12,60,43,29,34,25,14,83,51,25,30.03,29.87,24,8,42,0.05
2013-2-13,43,32,25,35,29,23,99,87,59,29.97,29.68,11,1,18,0.09
2013-2-14,55,37,28,34,28,21,98,70,43,30.01,29.83,12,3,21,0.01
2013-2-15,58,37,26,42,30,24,99,79,46,30.05,29.96,9,2,17,0.00
2013-2-16,35,30,22,28,19,11,99,64,46,30.03,29.91,11,3,17,0.00
2013-2-17,26,21,18,17,10,5,87,63,44,30.24,29.90,18,5,30,0.01
2013-2-18,58,28,12,21,12,5,80,54,20,30.33,30.06,14,2,23,0.00
2013-2-19,60,36,23,44,28,19,87,71,51,30.06,29.70,26,6,37,0.22
2013-2-20,29,24,20,18,13,7,70,61,53,30.20,29.87,26,8,46,0.62
2013-2-21,36,25,20,18,14,8,85,63,46,30.33,30.16,17,4,29,0.00
2013-2-22,29,26,22,29,23,16,99,89,73,30.33,30.13,5,1,8,0.00
2013-2-23,54,35,28,42,32,28,99,90,58,30.14,29.86,4,1,6,0.01
2013-2-24,49,34,26,35,26,17,99,73,49,30.16,29.86,17,3,27,0.00
2013-2-25,55,33,21,28,21,14,91,63,29,30.23,30.13,8,1,11,0.00
2013-2-26,34,30,23,32,27,20,99,91,68,30.18,29.70,7,0,12,0.38
2013-2-27,48,37,32,38,33,32,99,86,60,29.71,29.63,12,2,20,0.19
2013-2-28,39,36,34,34,28,26,93,73,65,29.74,29.63,17,5,27,0.01
2013-3-1,37,33,28,29,25,21,81,72,59,29.88,29.74,11,3,15,0.00
2013-3-2,34,29,26,22,19,17,78,68,58,29.94,29.86,12,3,21,0.00
2013-3-3,39,28,25,20,18,15,77,64,47,30.00,29.89,17,4,27,0.01
2013-3-4,48,30,23,22,15,10,72,56,34,30.10,29.99,17,4,27,0.00
2013-3-5,58,38,26,33,19,10,99,50,20,30.09,29.77,9,2,14,0.00
2013-3-6,42,35,24,35,31,23,99,87,63,30.10,29.74,11,2,18,0.28
2013-3-7,50,38,32,36,29,19,87,69,51,30.25,30.09,12,3,21,0.00
2013-3-8,51,35,27,37,26,19,90,70,54,30.39,30.23,15,4,22,0.00
2013-3-9,62,38,21,35,26,20,99,69,21,30.41,30.26,5,1,8,0.00
2013-3-10,71,44,26,40,30,25,99,64,20,30.30,30.14,12,1,16,0.00
2013-3-11,60,49,35,51,39,26,97,69,39,30.16,29.85,13,2,21,0.00
2013-3-12,57,45,34,53,38,21,99,77,60,30.04,29.78,21,5,30,0.13
2013-3-13,50,34,28,34,25,14,99,70,42,30.12,29.96,19,5,31,0.03
2013-3-14,50,33,25,26,18,7,88,56,36,30.19,30.09,17,6,32,0.37
2013-3-15,57,43,31,38,26,16,62,51,40,30.13,29.84,20,5,34,0.01
2013-3-16,59,45,36,51,40,26,99,83,57,29.93,29.68,14,2,19,0.01
2013-3-17,49,38,34,45,30,23,89,73,61,30.24,29.93,8,2,12,0.00
2013-3-18,36,31,28,32,30,24,99,96,66,30.25,29.88,8,1,12,0.05
2013-3-19,58,41,31,38,22,-2,99,56,14,30.09,29.77,26,7,42,0.53
2013-3-20,58,37,29,31,16,6,99,45,24,30.00,29.80,18,7,33,0.00
2013-3-21,30,26,24,25,13,10,84,59,46,29.94,29.85,17,4,25,0.00
2013-3-22,51,32,25,26,17,9,79,55,33,30.03,29.90,17,5,28,0.00
2013-3-23,55,35,21,27,20,15,94,60,23,30.04,29.96,12,2,20,0.00
2013-3-24,45,31,24,32,24,17,99,79,46,30.02,29.71,11,1,14,0.00
2013-3-25,48,34,27,38,31,26,99,87,64,29.74,29.53,11,2,20,0.25
2013-3-26,50,39,31,36,29,19,86,69,46,30.07,29.73,14,4,23,0.00
2013-3-27,49,37,32,38,29,20,99,72,55,30.15,30.05,17,6,30,0.00
2013-3-28,54,42,30,37,30,19,70,61,52,29.99,29.81,14,3,24,0.00
2013-3-29,57,45,34,35,28,18,73,53,29,30.00,29.90,14,3,21,0.00
2013-3-30,60,42,26,36,25,11,93,58,16,29.98,29.82,12,2,19,0.00
2013-3-31,50,39,32,47,36,27,99,91,74,29.83,29.50,12,1,21,0.31
2013-4-1,57,45,36,49,34,13,99,66,37,29.75,29.50,17,4,35,0.04
2013-4-2,52,37,30,19,12,1,49,37,21,29.91,29.73,15,5,30,0.00
2013-4-3,58,37,25,18,13,-4,66,39,18,30.12,29.91,18,4,29,0.00
2013-4-4,56,36,17,29,16,5,83,50,17,30.11,29.76,9,2,17,0.00
2013-4-5,64,49,34,39,27,16,84,47,21,29.85,29.63,15,3,28,0.00
2013-4-6,64,45,26,33,17,1,85,40,10,30.04,29.85,9,2,16,0.00
2013-4-7,77,52,37,40,33,23,71,51,25,29.89,29.67,14,3,26,0.00
2013-4-9,89,77,61,56,52,49,71,44,27,30.00,29.84,15,4,28,0.00
2013-4-10,89,78,62,58,53,48,68,44,27,29.88,29.73,14,5,22,0.00
2013-4-11,89,70,51,60,55,51,99,63,29,29.83,29.59,8,2,14,0.00
2013-4-12,75,61,51,63,50,34,99,74,31,29.74,29.51,17,4,32,0.00
2013-4-13,68,54,42,46,32,18,70,44,17,29.88,29.72,19,5,30,0.00
2013-4-14,73,54,33,44,36,29,99,58,22,30.03,29.88,9,2,14,0.00
2013-4-15,64,57,49,55,49,42,99,75,58,30.10,29.97,11,2,17,0.00
2013-4-16,86,68,53,62,56,52,99,69,36,30.11,29.94,16,3,26,0.00
2013-4-17,82,65,53,64,59,53,99,81,49,30.11,30.03,8,2,12,0.00
2013-4-18,82,69,60,64,59,55,99,73,47,30.08,29.81,16,3,33,0.00
2013-4-19,76,62,47,65,54,33,99,75,58,29.82,29.47,28,5,42,0.00
2013-4-20,58,46,34,36,26,18,72,47,24,30.26,29.73,21,6,34,0.00
2013-4-21,58,42,26,34,25,13,99,57,19,30.44,30.25,10,2,14,0.00
2013-4-22,60,45,29,40,28,16,97,58,20,30.40,30.22,11,2,16,0.00
2013-4-23,71,49,30,47,38,30,99,69,29,30.24,29.96,10,2,14,0.00
2013-4-24,82,56,36,59,46,34,99,75,32,30.02,29.63,29,4,40,0.00
2013-4-25,65,51,37,40,29,7,76,49,12,30.21,30.02,14,4,26,0.00
2013-4-26,70,52,33,48,34,27,99,59,22,30.35,30.20,10,2,13,0.00
2013-4-27,78,54,33,45,37,30,99,62,20,30.29,30.10,8,2,12,0.00
2013-4-28,55,51,37,55,48,34,99,91,79,30.12,29.96,7,1,12,0.00
2013-4-29,62,55,50,58,53,49,99,94,80,29.97,29.89,4,1,6,0.00
2013-4-30,65,57,52,57,54,52,99,91,70,30.17,29.96,8,1,13,0.00
2013-5-1,76,60,49,54,44,21,99,64,14,30.26,30.15,9,2,14,0.00
2013-5-2,76,56,30,49,41,20,99,63,20,30.30,29.58,10,2,17,1.69
2013-5-3,74,56,36,50,44,34,99,68,37,29.86,29.75,13,2,18,0.00
2013-5-4,70,54,36,50,42,31,99,67,37,29.83,29.66,12,2,20,0.00
2013-5-5,69,54,36,46,39,32,99,64,26,29.73,29.61,12,2,17,0.00
2013-5-6,57,52,43,56,49,39,99,92,73,29.68,29.57,8,2,13,0.00
2013-5-7,59,57,52,59,56,52,99,99,99,29.57,29.46,11,2,19,0.00
2013-5-8,69,58,52,59,54,52,99,89,58,29.55,29.45,8,1,13,0.00
2013-5-9,81,63,50,59,54,46,99,76,32,29.56,29.44,16,3,25,0.00
2013-5-10,82,62,50,69,58,50,99,89,50,29.57,29.40,16,1,24,0.00
2013-5-11,74,63,57,66,58,50,99,84,52,29.40,29.31,21,2,34,0.00
2013-5-12,58,52,41,50,33,23,82,51,29,29.57,29.34,19,5,28,0.00
2013-5-13,57,47,37,40,28,17,83,50,26,29.70,29.56,18,4,30,0.00
2013-5-14,68,48,27,51,36,27,99,72,26,29.91,29.52,6,1,11,0.00
2013-5-15,91,68,36,61,51,36,99,62,28,29.53,29.27,25,4,35,0.00
2013-5-16,80,70,60,63,58,50,99,67,35,29.53,29.33,20,5,37,0.00
2013-5-17,90,73,59,62,57,45,99,64,22,29.65,29.52,12,2,15,0.00
2013-5-18,73,64,53,66,59,53,99,87,63,29.73,29.65,6,1,11,0.00
2013-5-19,66,61,58,65,60,58,99,99,95,29.71,29.60,5,1,8,0.00
2013-5-20,90,71,59,71,65,59,99,83,44,29.64,29.51,6,1,9,0.00
2013-5-21,94,75,58,71,64,58,99,74,33,29.55,29.40,9,1,15,0.00
2013-5-22,90,73,61,73,64,57,99,79,37,29.49,29.39,23,2,34,0.01
2013-5-23,85,70,61,70,62,57,99,79,40,29.44,29.30,17,2,29,0.29
2013-5-24,65,52,39,57,41,25,83,67,42,29.78,29.34,25,4,47,0.87
2013-5-25,64,51,37,40,34,26,82,55,33,29.79,29.69,14,4,28,0.00
2013-5-26,74,56,38,42,34,20,84,49,16,29.78,28.24,12,2,19,0.00
2013-5-27,68,54,36,54,46,35,99,78,51,29.81,29.70,5,1,8,0.00
2013-5-28,86,65,50,69,58,50,99,83,38,29.73,29.58,9,1,15,0.01
2013-5-29,91,73,56,65,60,56,99,69,35,29.67,29.61,11,3,20,0.19
2013-5-30,97,75,57,73,64,57,99,75,30,29.75,29.65,6,1,11,0.00
2013-5-31,96,76,54,68,63,54,99,69,29,29.71,29.55,8,1,12,0.00
2013-6-1,96,77,61,74,67,61,99,74,39,29.60,29.44,7,1,11,0.00
2013-6-2,81,73,66,72,65,62,99,76,57,29.45,29.39,10,2,22,0.00
2013-6-3,80,70,30,67,60,20,92,73,48,30.06,29.42,11,2,17,0.00
2013-6-4,82,62,41,55,48,41,99,67,28,30.16,30.03,6,1,10,0.00
2013-6-5,82,64,44,64,56,42,99,77,47,30.19,30.01,5,1,10,0.00
2013-6-6,67,63,62,64,62,60,99,97,84,30.03,29.86,4,1,10,0.01
2013-6-7,71,65,62,70,64,62,99,99,92,29.86,29.71,7,1,15,0.00
2013-6-8,82,68,57,63,60,57,99,77,45,30.14,29.82,12,2,17,0.00
2013-6-9,85,68,55,70,63,55,99,85,57,30.20,30.08,8,1,11,0.00
2013-6-10,82,69,60,75,67,60,99,94,70,30.10,29.83,8,1,13,0.01
2013-6-11,80,72,62,67,64,61,99,77,62,29.92,29.83,17,5,30,0.02
2013-6-12,90,78,30,74,68,20,99,71,47,30.06,29.82,16,3,24,2.25
2013-6-13,78,69,64,74,65,56,99,88,71,29.85,29.59,17,4,27,0.01
2013-6-14,83,68,58,59,56,51,98,68,37,30.07,29.75,11,2,19,0.00
2013-6-15,86,68,51,63,53,43,99,67,26,30.15,30.04,10,2,14,0.00
2013-6-16,83,70,58,67,62,58,99,79,53,30.09,29.94,19,3,30,0.00
2013-6-17,89,76,66,70,67,63,99,76,45,30.02,29.94,6,2,11,0.00
2013-6-18,82,70,62,72,67,62,99,92,60,29.99,29.86,4,0,8,0.01
2013-6-19,82,68,58,64,62,58,99,83,50,30.18,29.95,6,1,11,0.00
2013-6-20,89,71,57,70,63,57,99,81,41,30.26,30.17,7,1,11,0.00
2013-6-21,91,73,59,71,65,59,99,80,43,30.31,30.22,7,1,11,0.00
2013-6-22,93,74,59,75,67,59,99,82,42,30.26,30.14,5,1,9,0.00
2013-6-23,94,75,60,73,67,59,99,80,42,30.23,30.10,8,1,12,0.00
2013-6-24,94,77,62,75,69,61,99,78,42,30.19,30.07,7,1,11,0.00
2013-6-25,93,80,65,74,68,63,99,71,41,30.11,29.96,13,2,20,0.00
2013-6-26,88,75,65,75,69,65,99,83,54,29.99,29.89,14,1,31,0.01
2013-6-27,81,70,63,74,68,62,99,93,70,29.90,29.69,10,2,17,0.00
2013-6-28,83,72,62,72,68,62,99,86,64,29.70,29.57,14,3,21,0.00
2013-6-29,88,71,58,73,64,58,99,81,39,29.77,29.59,11,1,17,0.00
2013-6-30,92,72,58,76,66,58,99,84,46,29.92,29.76,9,1,18,0.00
2013-7-1,88,73,65,78,70,64,99,92,58,30.00,29.88,8,0,10,0.00
2013-7-2,85,75,67,76,70,67,99,87,64,30.15,29.99,10,1,14,0.00
2013-7-3,90,76,66,75,71,66,99,85,59,30.25,30.14,10,1,22,0.00
2013-7-4,93,78,66,76,71,62,99,80,51,30.27,30.17,8,1,16,0.00
2013-7-5,94,79,65,78,71,65,99,80,48,30.24,30.14,8,2,16,0.01
2013-7-6,97,79,64,75,70,64,99,77,44,30.25,30.08,6,1,11,0.00
2013-7-7,90,74,66,75,70,66,99,89,55,30.16,30.06,8,1,14,0.02
2013-7-8,89,76,65,71,67,63,99,78,47,30.17,30.10,10,2,17,0.01
2013-7-9,93,77,69,75,71,67,99,85,53,30.16,30.05,11,1,18,0.01
2013-7-10,90,77,69,79,72,64,99,86,61,30.08,29.90,8,2,15,0.00
2013-7-11,87,74,64,71,68,64,99,82,56,30.05,29.92,8,1,16,0.01
2013-7-12,72,67,62,70,66,62,99,97,79,30.13,30.00,4,0,6,0.00
2013-7-13,83,73,65,75,70,64,99,91,66,30.30,30.12,4,1,8,0.01
2013-7-14,93,79,67,77,70,66,99,79,47,30.37,30.30,8,1,11,0.00
2013-7-15,98,79,63,76,69,62,99,76,37,30.38,30.27,6,1,8,0.00
2013-7-16,99,80,67,82,73,66,99,80,47,30.35,30.24,7,1,11,0.01
2013-7-17,99,83,68,80,74,68,99,78,43,30.33,30.17,5,1,8,0.00
2013-7-18,102,83,69,82,75,69,99,80,42,30.23,30.08,6,1,10,0.00
2013-7-19,100,80,70,76,72,70,99,79,42,30.10,29.95,14,2,25,0.00
2013-7-20,94,81,71,75,71,66,99,74,46,29.98,29.87,17,3,30,0.00
2013-7-21,89,75,66,77,70,66,99,87,57,30.02,29.95,8,1,12,0.84
2013-7-22,80,72,69,77,71,68,99,98,87,30.01,29.83,7,1,11,1.83
2013-7-23,90,75,66,73,68,63,99,82,49,29.84,29.74,12,2,18,0.20
2013-7-24,80,70,56,71,62,55,99,81,51,30.01,29.77,10,2,16,0.02
2013-7-25,82,66,53,62,58,53,99,79,45,30.12,30.00,7,1,11,0.00
2013-7-26,88,68,49,67,58,49,99,76,38,30.15,30.05,5,1,11,0.00
2013-7-27,75,65,53,74,65,53,99,98,86,30.07,29.93,5,0,8,0.06
2013-7-28,84,72,61,69,62,57,99,75,43,30.08,29.91,11,2,19,0.11
2013-7-29,80,67,51,62,56,51,99,73,40,30.23,30.08,9,2,15,0.00
2013-7-30,87,69,54,68,60,54,99,78,39,30.28,30.18,7,1,116,0.00
2013-7-31,84,67,56,70,63,56,99,89,57,30.21,30.01,4,1,8,0.00
2013-8-1,86,73,65,71,67,64,99,83,55,30.02,29.88,9,1,18,0.00
2013-8-2,86,72,59,66,61,55,99,74,39,30.03,29.94,11,2,17,0.02
2013-8-3,79,70,64,71,65,62,99,85,65,30.02,29.98,7,1,11,0.07
2013-8-4,80,68,56,66,59,52,99,77,41,30.11,30.00,13,2,22,0.01
2013-8-5,84,66,50,64,56,49,99,76,32,30.16,30.04,4,1,8,0.00
2013-8-6,82,70,57,68,63,57,99,81,55,30.08,30.03,8,1,12,0.00
2013-8-7,92,72,66,78,70,66,99,92,52,30.09,29.99,6,1,11,0.66
2013-8-8,78,70,65,78,70,64,99,99,99,30.07,29.99,4,0,8,1.31
2013-8-9,82,74,70,77,72,69,99,93,71,30.05,29.95,10,2,18,0.09
2013-8-10,92,74,63,73,67,61,99,84,38,30.14,30.04,4,1,9,0.03
2013-8-11,90,74,62,77,68,61,99,85,53,30.16,30.04,6,1,10,0.00
2013-8-12,90,74,63,74,67,62,99,81,45,30.10,29.95,6,1,9,0.00
2013-8-13,86,72,65,72,66,58,99,82,52,29.96,29.82,11,2,23,0.39
2013-8-14,72,62,50,59,52,48,99,73,47,30.17,29.94,11,2,16,0.00
2013-8-15,80,61,46,59,53,46,99,78,39,30.23,30.13,6,1,9,0.00
2013-8-16,80,62,47,61,54,47,99,80,49,30.20,30.15,8,1,11,0.00
2013-8-17,80,64,49,66,58,49,99,84,46,30.06,29.99,7,1,11,0.00
2013-8-18,68,64,61,65,62,61,99,96,84,30.02,29.95,3,0,5,0.32
2013-8-19,86,70,62,72,66,61,99,90,57,29.96,29.85,5,1,8,0.00
2013-8-20,89,71,58,72,64,58,99,81,43,30.00,29.90,6,1,9,0.01
2013-8-21,90,71,59,77,68,59,99,90,57,30.01,29.87,8,1,12,0.02
2013-8-22,88,74,64,72,67,63,99,81,52,29.91,29.77,10,2,17,0.00
2013-8-23,79,68,57,72,66,57,99,94,62,29.95,29.77,11,1,17,0.36
2013-8-24,84,66,55,67,61,54,99,86,48,30.13,29.94,8,1,11,0.00
2013-8-25,88,67,52,68,60,52,99,83,43,30.19,29.91,5,1,8,0.00
2013-8-26,88,71,54,69,62,54,99,77,46,30.07,29.84,9,2,14,0.00
2013-8-27,86,77,72,74,70,66,99,80,64,29.84,29.74,14,4,24,0.01
2013-8-28,82,73,69,78,72,69,99,97,80,29.76,29.59,8,1,11,0.50
2013-8-29,89,74,64,75,70,64,99,87,53,29.84,29.68,4,1,7,0.01
2013-8-30,95,74,62,77,68,62,99,85,45,29.84,29.66,5,1,8,0.00
2013-8-31,91,76,64,77,69,64,99,82,48,29.70,29.60,7,1,11,0.00
2013-9-1,95,75,65,75,70,64,99,86,46,29.67,29.59,6,1,10,0.00
2013-9-2,91,78,68,74,70,62,99,78,49,29.64,29.56,15,2,21,0.00
2013-9-3,82,71,57,67,61,55,99,75,44,29.82,29.61,20,2,29,0.00
2013-9-4,88,68,52,63,57,49,99,73,30,29.91,29.81,12,2,18,0.00
2013-9-5,83,69,53,66,59,53,99,74,40,29.97,29.85,9,2,17,0.00
2013-9-6,81,59,44,56,50,43,99,78,30,30.06,29.92,7,1,10,0.00
2013-9-7,87,64,44,62,52,42,99,74,23,30.06,29.75,7,1,12,0.00
2013-9-8,89,74,62,69,64,57,99,75,47,29.85,29.71,9,2,13,0.00
2013-9-9,80,67,61,65,60,52,99,78,54,29.98,29.85,7,1,8,0.01
2013-9-10,95,76,60,78,69,59,99,82,50,29.96,29.88,9,1,17,0.01
2013-9-11,96,78,67,78,72,67,99,85,50,29.97,29.84,8,1,12,0.04
2013-9-12,89,75,67,76,69,64,99,82,53,29.84,29.59,14,3,24,0.01
2013-9-13,76,64,47,66,56,41,99,76,40,29.79,29.58,10,2,18,0.03
2013-9-14,71,55,42,58,47,42,99,80,43,29.96,29.79,8,1,15,0.00
2013-9-15,81,59,40,66,52,40,99,81,46,29.98,29.85,8,1,11,0.00
2013-9-16,72,60,51,61,56,51,99,89,51,30.04,29.83,8,1,14,0.04
2013-9-17,74,55,41,58,50,41,99,84,40,30.19,30.05,7,1,10,0.00
2013-9-18,70,50,35,59,46,35,99,91,54,30.10,29.93,4,0,5,0.00
2013-9-19,83,62,43,64,57,42,99,86,48,29.96,29.85,5,1,10,0.00
2013-9-20,88,66,52,70,62,52,99,87,51,29.87,29.69,8,1,12,0.00
2013-9-21,76,64,56,70,63,55,99,96,78,29.70,29.48,8,1,16,0.35
2013-9-22,72,58,44,59,51,40,99,82,45,29.78,29.55,9,2,16,0.02
2013-9-23,68,52,41,54,46,40,99,82,47,29.90,29.77,7,1,13,0.00
2013-9-24,79,52,36,59,46,35,99,85,44,29.92,29.74,4,1,8,0.00
2013-9-25,76,55,43,59,50,43,99,87,47,29.79,29.67,4,1,8,0.01
2013-9-26,83,59,44,58,50,44,99,79,32,29.88,29.73,6,1,10,0.00
2013-9-27,80,57,42,57,50,42,99,82,40,30.01,29.87,8,1,11,0.00
2013-9-28,73,55,45,60,51,42,99,88,48,30.09,29.99,5,1,10,0.00
2013-9-29,80,56,43,59,50,43,99,85,44,30.00,29.83,7,1,11,0.00
2013-9-30,79,59,43,64,54,43,99,87,50,29.86,29.78,5,1,8,0.00
2013-10-1,84,66,54,65,59,54,99,82,43,29.88,29.79,15,2,20,0.00
2013-10-2,85,69,59,65,61,58,99,79,42,29.90,29.83,12,2,18,0.00
2013-10-3,86,67,54,68,61,54,99,84,48,29.93,29.82,6,1,11,0.00
2013-10-4,89,71,59,68,64,59,99,81,42,29.91,29.83,11,2,14,0.00
2013-10-5,89,74,62,70,66,62,99,81,45,29.90,29.79,8,1,11,0.00
2013-10-6,90,72,57,68,61,55,99,75,33,29.82,29.64,13,2,24,0.00
2013-10-7,77,61,56,66,60,53,99,97,76,29.67,29.54,13,2,27,0.60
2013-10-8,72,54,41,53,46,40,99,77,40,30.08,29.88,8,2,13,0.00
2013-10-9,62,50,39,53,45,39,99,86,62,30.12,30.03,8,1,12,0.00
2013-10-10,61,53,44,59,52,42,99,96,76,30.03,29.85,2,0,4,0.46
2013-10-11,60,56,52,60,55,52,99,99,99,29.85,29.79,4,0,8,0.37
2013-10-12,63,59,57,62,59,56,99,99,99,29.98,29.82,4,0,8,0.22
2013-10-13,60,57,56,60,57,56,99,99,99,30.09,29.96,4,1,7,0.73
2013-10-14,61,57,55,61,57,55,99,99,99,30.09,30.01,4,0,5,0.02
2013-10-15,75,61,53,62,57,53,99,89,59,30.03,29.84,5,0,8,0.01
2013-10-16,72,58,47,62,55,47,99,91,61,29.84,29.69,4,0,8,0.00
2013-10-17,68,62,53,67,61,46,99,94,76,29.69,29.47,17,2,29,0.16
2013-10-18,69,54,37,47,42,37,99,68,35,29.81,29.67,14,3,23,0.00
2013-10-19,62,47,35,50,43,34,99,86,55,29.78,29.54,19,2,30,0.00
2013-10-20,65,50,36,42,37,30,99,65,28,29.87,29.71,11,3,17,0.00
2013-10-21,76,48,31,48,39,31,99,78,26,29.89,29.69,7,1,10,0.00
2013-10-22,60,46,35,49,40,29,99,83,36,29.69,29.62,11,2,26,0.00
2013-10-23,49,39,34,45,38,32,99,94,76,29.70,29.48,12,2,22,0.20
2013-10-24,49,40,34,38,33,23,95,75,57,29.90,29.69,14,5,27,0.02
2013-10-25,53,39,32,42,32,24,99,76,48,30.07,29.89,12,2,21,0.00
2013-10-26,60,45,30,36,27,16,97,54,20,30.04,29.69,16,4,27,0.00
2013-10-27,60,48,34,41,35,26,99,63,37,29.90,29.73,14,4,24,0.00
2013-10-28,68,43,28,46,36,28,99,81,37,30.05,29.68,7,1,8,0.00
2013-10-29,67,46,31,48,38,30,99,81,37,30.14,30.03,5,1,8,0.00
2013-10-30,65,52,37,56,48,36,99,88,61,30.06,29.90,2,0,4,0.01
2013-10-31,69,58,47,60,56,45,99,93,59,29.92,29.43,11,1,17,0.00
2013-11-1,73,64,50,62,51,43,86,65,37,29.50,29.27,20,6,33,0.25
2013-11-2,57,49,36,49,42,34,99,80,55,29.68,29.45,14,3,22,0.00
2013-11-3,58,46,29,46,32,18,99,64,22,30.19,29.68,14,3,21,0.00
2013-11-4,54,33,23,32,26,20,99,77,41,30.34,30.18,6,1,9,0.00
2013-11-5,55,38,28,35,30,23,99,76,37,30.33,30.17,4,1,7,0.00
2013-11-6,74,50,28,54,42,27,99,76,48,30.18,29.75,11,2,17,0.00
2013-11-7,61,51,39,57,42,22,99,71,52,29.87,29.64,21,4,36,0.01
2013-11-8,55,40,25,32,26,18,98,62,33,30.06,29.85,14,5,30,0.02
2013-11-9,64,42,24,37,26,17,99,62,23,30.06,29.77,17,2,27,0.00
2013-11-10,77,49,37,62,30,21,64,49,27,30.03,29.67,25,7,37,0.25
2013-11-11,63,48,32,35,21,0,84,43,10,30.05,29.76,16,3,29,0.00
2013-11-12,56,35,29,43,25,14,99,68,42,30.19,29.77,14,4,24,0.01
2013-11-13,45,31,26,25,20,15,75,63,45,30.23,30.11,14,4,26,0.00
2013-11-14,58,41,28,25,13,1,77,37,12,30.11,29.96,13,4,21,0.00
2013-11-15,63,44,26,48,23,9,99,53,13,30.00,29.91,10,2,16,0.03
2013-11-16,65,48,38,51,45,38,99,88,56,30.03,29.91,4,1,8,0.02
2013-11-17,62,53,38,59,51,36,99,93,81,29.91,29.43,16,2,34,0.13
2013-11-18,62,54,42,51,34,21,88,49,28,29.77,29.49,24,8,42,0.79
2013-11-19,47,36,25,31,26,23,95,67,49,30.13,29.75,15,3,27,0.00
2013-11-20,52,31,20,33,22,14,99,73,27,30.26,29.75,7,1,11,0.00
2013-11-21,57,35,22,43,30,20,99,84,55,30.26,30.08,4,1,6,0.00
2013-11-22,62,48,37,58,45,36,99,90,73,30.09,29.80,14,2,26,0.01
2013-11-23,49,36,22,44,26,12,87,67,46,30.01,29.84,21,5,34,0.00
2013-11-24,28,21,15,15,7,4,80,56,37,30.25,30.00,17,5,26,0.00
2013-11-25,48,27,13,20,10,1,80,54,20,30.25,29.99,7,1,16,0.00
2013-11-26,33,32,31,32,27,18,99,84,58,30.00,29.44,3,0,4,0.97
2013-11-27,37,31,23,36,26,12,99,83,61,29.82,29.38,18,4,28,0.04
2013-11-28,36,26,22,24,18,12,94,72,53,30.17,29.82,13,3,23,0.00
2013-11-29,48,29,19,29,24,19,99,83,50,30.41,30.17,8,1,11,0.00
2013-11-30,35,23,15,26,21,15,99,91,67,30.41,30.05,4,1,5,0.00
2013-12-1,77,35,19,42,29,19,99,82,39,30.06,29.79,8,1,13,0.01
2013-12-2,54,41,35,43,38,33,99,90,64,29.87,29.71,3,0,5,0.00
2013-12-3,61,42,33,45,37,33,99,87,47,29.86,29.74,4,1,8,0.00
2013-12-4,58,42,31,48,38,31,99,89,59,29.93,29.84,5,1,8,0.00
2013-12-5,58,46,34,54,44,34,99,93,75,29.92,29.79,4,1,5,0.06
2013-12-6,54,42,34,53,41,33,99,98,90,30.06,29.78,9,1,15,1.11
2013-12-7,36,31,22,34,27,20,99,84,66,30.39,30.04,12,2,18,0.01
2013-12-8,24,22,19,23,22,19,99,97,85,30.40,30.12,4,1,7,0.00
2013-12-9,48,34,24,41,31,23,99,89,71,30.12,29.89,16,2,27,0.31
2013-12-10,36,31,27,30,24,15,92,73,58,30.07,29.86,21,6,34,0.13
2013-12-11,45,31,22,21,16,8,71,54,32,30.22,30.06,19,6,30,0.01
2013-12-12,31,24,20,22,9,3,76,53,36,30.28,30.06,19,6,34,0.06
2013-12-13,48,30,24,24,14,4,88,52,34,30.14,30.04,18,4,34,0.00
2013-12-14,33,30,28,33,29,24,99,96,80,30.14,29.61,2,0,4,0.00
2013-12-15,40,33,29,39,28,22,99,83,71,29.83,29.52,20,6,34,0.20
2013-12-16,33,30,28,29,25,22,98,82,69,30.00,29.81,17,4,32,0.02
2013-12-17,47,33,27,41,30,24,99,87,69,29.99,29.76,18,4,34,0.06
2013-12-18,42,31,28,26,22,16,82,68,45,30.18,29.98,16,5,28,0.00
2013-12-19,62,43,21,37,27,15,91,59,30,30.13,30.03,17,4,30,0.14
2013-12-20,58,42,31,49,38,30,99,87,60,30.09,29.94,6,1,13,0.00
2013-12-21,75,55,36,57,50,36,99,85,46,29.99,29.82,12,2,17,0.00
2013-12-22,71,62,52,62,56,51,99,82,58,29.99,29.73,22,4,34,0.09
2013-12-23,58,46,33,56,41,24,99,84,67,30.25,29.90,17,3,27,0.09
2013-12-24,34,27,17,25,16,6,72,64,47,30.46,30.19,17,5,32,0.00
2013-12-25,40,24,14,19,12,7,84,62,32,30.48,30.25,8,1,13,0.00
2013-12-26,48,33,25,31,20,15,80,61,41,30.34,30.16,17,3,27,0.00
2013-12-27,54,33,20,23,18,6,96,60,19,30.35,30.29,17,3,27,0.00
2013-12-28,59,44,28,32,23,16,80,48,25,30.31,30.08,13,3,20,0.00
2013-12-29,49,42,36,46,38,25,99,88,56,30.09,29.59,14,3,25,0.79
2013-12-30,44,34,28,40,29,20,99,81,70,30.10,29.82,12,3,24,0.01
2013-12-31,35,30,27,24,20,16,83,67,53,30.21,30.01,28,7,45,0.64
2014-1-1,56,32,21,31,23,18,97,72,29,30.32,30.07,9,2,16,0.00
2014-1-2,30,27,19,28,26,13,99,96,73,30.07,29.65,13,1,25,0.00